Cajon Junction, California
Current Conditions -  °F | °C
As of 7:50 PM on Tuesday 21 Oct 2014 (Local Time) from KSBD Reporting Station
Scattered Clouds Scattered Clouds  
Wind Chill: 68°   Ceiling: Unl
Heat Index: 68°   Visibility: 10mi
Dew Point: 55°   Wind: 6mph
Humidity: 64%   Direction: 230°SW
Pressure: 29.88"   Gusts: NA
Location:  34.2759°N, 117.303°W
Report Text: KSBD 220250Z 23005KT 10SM SCT150 20/13 A2988
Loading
Personal Weather Stations






























Interactive Weather Map
Tropical Storm Tracking
New forecast layout! Learn more

10-Day Weather Forecast

Advertisements
Track Severe Weather on mobile